Alto Parana, Brazil
Current Conditions -  °F | °C
As of 5:00 PM on Monday 22 Dec 2014 (Local Time) from SBMG Reporting Station
Moderate Fog Moderate Fog  
Wind Chill: 70°   Ceiling: 200
Heat Index: 70°   Visibility: 0.06mi
Dew Point: 68°   Wind: 7mph
Humidity: 94%   Direction: 170°S
Pressure: 29.85"   Gusts: NA
Location:  23.13°S, 52.32°W
Report Text: SBMG 221900Z 17006KT 0100 FG VV002 21/20 Q1011
Loading
Personal Weather Stations






























Interactive Weather Map New forecast layout! Learn more

10-Day Weather Forecast

Advertisements
Track Severe Weather on mobile